Airfield :
LOGIN :

Register | Disclaimer

   EN    FR    IT 

 










Legend :    VFR   Marginal VFR   IFR   Intensive IFR   Very Intensive IFR
Visi :
Ceiling :
>= 8 km
>= 3000ft
5 to 8 km
1000 to 3000 ft
1500m to 5 km
500 to 1000 ft
800 to 1500m
200 to 500 ft
< 800m
< 200 ft
Symbols :   Thunderstorms  Fog  Heavy snow  Heavy precipitations  Wind > 20 kt
SIGMETs :     Misc.  Thunderstorms  Icing  Turbulence  Mountain Waves  Volcanic Ashes






- Airport Elevation : 59 ft
- IATA code : GSE


ESGP - Save AB

CURRENT METAR :
  • 130850Z 05007KT 020V080 CAVOK 20/14 Q1010

EXPIRED METARs :
  • 130820Z AUTO 04007KT 9999 FEW180/// 20/14 Q1010
  • 130750Z 04005KT CAVOK 20/14 Q1010
  • 130720Z 04005KT 340V060 CAVOK 19/14 Q1010
  • 130650Z AUTO 04005KT 360V060 9999 FEW200/// 18/14 Q1011
  • 130620Z 03004KT 350V060 CAVOK 17/13 Q1011
  • 130550Z AUTO 04005KT 9999 NCD 16/13 Q1011
  • 130520Z AUTO VRB03KT 9999 NCD 16/12 Q1011
  • 130450Z AUTO 04003KT 350V080 9999 NCD 16/12 Q1011
  • 130420Z AUTO 04003KT 010V080 9999 FEW120/// 15/12 Q1011

TAF TAF ESGP
Valid from the 13 at 09:00 until the 13 at 17:00 UTC


130830Z 1309/1317 06008KT CAVOK
TEMPO 1311/1317 SHRA BKN030CB



MET'MAP, your aeronautical weather chart ! - Copyright ORBIFLY December 2007 - Disclaimer

ORBIFLY MET'MAP TEAM :

Programming & Development : Alexandra Zaïnal
Original concept : Baudouin d'Aumeries
Technical & hardware support : Manuel Goepfert
Assistance : Marc-Olivier Méhu




SOURCES & CREDITS :

   NOAA